Time;durP1;ratioP1;P1;durP2;ratioP2;P2;SDS_P1;SDS_P2;PMS_P1;PMS_P2;Temp;Humidity;BMP_temperature;BMP_pressure;BME280_temperature;BME280_humidity;BME280_pressure;Samples;Min_cycle;Max_cycle;Signal;HPM_P1;HPM_P2
2023/02/10 00:01:01;;;;;;;89.90;31.47;;;;;;;-145.18;100.00;60484.78;5072000;28;20029;-66
2023/02/10 00:03:26;;;;;;;77.13;29.40;;;;;;;-145.18;100.00;60484.78;5071928;28;20496;-66
2023/02/10 00:05:51;;;;;;;89.13;31.73;;;;;;;-145.18;100.00;60484.78;5073503;28;20043;-66
2023/02/10 00:08:17;;;;;;;78.07;30.73;;;;;;;-145.18;100.00;60484.78;5073304;28;20024;-66
2023/02/10 00:10:42;;;;;;;115.07;33.60;;;;;;;-145.18;100.00;60484.78;5073116;28;20484;-66
2023/02/10 00:13:07;;;;;;;95.47;34.40;;;;;;;-145.18;100.00;60484.78;5059502;28;20104;-66
2023/02/10 00:15:33;;;;;;;97.67;34.57;;;;;;;-145.18;100.00;60484.78;5052939;28;20056;-66
2023/02/10 00:17:58;;;;;;;102.47;34.30;;;;;;;-145.18;100.00;60484.78;5064855;28;20016;-66
2023/02/10 00:20:23;;;;;;;107.23;34.33;;;;;;;-145.18;100.00;60484.78;5071636;28;20032;-66
2023/02/10 00:22:49;;;;;;;114.70;37.83;;;;;;;-145.18;100.00;60484.78;5069853;28;20073;-66
2023/02/10 00:25:14;;;;;;;120.83;36.13;;;;;;;-145.18;100.00;60484.78;5070159;28;20063;-66
2023/02/10 00:27:40;;;;;;;117.77;38.60;;;;;;;-145.18;100.00;60484.78;5073038;28;20502;-66
2023/02/10 00:30:05;;;;;;;125.63;38.63;;;;;;;-145.18;100.00;60484.78;5072964;28;20094;-66
2023/02/10 00:32:31;;;;;;;134.07;40.50;;;;;;;-145.18;100.00;60484.78;5072834;28;20031;-66
2023/02/10 00:34:56;;;;;;;123.10;39.40;;;;;;;-145.18;100.00;60484.78;5071236;28;20020;-66
2023/02/10 00:37:21;;;;;;;129.20;40.87;;;;;;;-145.18;100.00;60484.78;5072766;28;20500;-66
2023/02/10 00:39:47;;;;;;;134.20;40.97;;;;;;;-145.18;100.00;60484.78;5072372;28;20387;-66
2023/02/10 00:42:12;;;;;;;152.80;41.43;;;;;;;-145.18;100.00;60484.78;5072593;28;20074;-66
2023/02/10 00:44:37;;;;;;;145.30;43.53;;;;;;;-145.18;100.00;60484.78;5070826;28;20096;-66
2023/02/10 00:47:03;;;;;;;157.20;42.37;;;;;;;-145.18;100.00;60484.78;5072292;28;20063;-66
2023/02/10 00:49:28;;;;;;;153.57;42.23;;;;;;;-145.18;100.00;60484.78;5070369;28;20412;-66
2023/02/10 00:51:54;;;;;;;142.20;40.30;;;;;;;-145.18;100.00;60484.78;5069923;28;20035;-66
2023/02/10 00:54:19;;;;;;;152.93;44.17;;;;;;;-145.18;100.00;60484.78;5066968;28;20449;-66
2023/02/10 00:56:44;;;;;;;153.60;44.53;;;;;;;-145.18;100.00;60484.78;5071611;28;20058;-66
2023/02/10 00:59:12;;;;;;;165.47;44.67;;;;;;;-145.18;100.00;60484.78;5071815;28;20044;-66
2023/02/10 01:01:38;;;;;;;169.37;43.67;;;;;;;-145.18;100.00;60484.78;5072406;28;20496;-66
2023/02/10 01:04:04;;;;;;;166.73;44.20;;;;;;;-145.18;100.00;60484.78;5068639;28;20072;-66
2023/02/10 01:06:30;;;;;;;167.33;46.27;;;;;;;-145.18;100.00;60484.78;5071900;28;20491;-66
2023/02/10 01:08:55;;;;;;;154.47;45.10;;;;;;;-145.18;100.00;60484.78;5070473;28;20029;-66
2023/02/10 01:11:20;;;;;;;168.60;45.53;;;;;;;-145.18;100.00;60484.78;5070754;28;20031;-66
2023/02/10 01:13:46;;;;;;;172.47;46.87;;;;;;;-145.18;100.00;60484.78;5071467;28;20413;-65
2023/02/10 01:16:16;;;;;;;160.87;47.53;;;;;;;-145.18;100.00;60484.78;5071576;28;20039;-66
2023/02/10 01:18:42;;;;;;;175.30;45.53;;;;;;;-145.18;100.00;60484.78;5070138;28;20028;-66
2023/02/10 01:21:13;;;;;;;196.43;47.47;;;;;;;-145.18;100.00;60484.78;5057690;28;20073;-66
2023/02/10 01:23:39;;;;;;;194.70;48.13;;;;;;;-145.18;100.00;60484.78;5071549;28;20150;-66
2023/02/10 01:26:04;;;;;;;193.97;49.90;;;;;;;-145.18;100.00;60484.78;5067975;28;20504;-66
2023/02/10 01:28:30;;;;;;;189.50;50.63;;;;;;;-145.18;100.00;60484.78;5052039;28;20144;-66
2023/02/10 01:30:55;;;;;;;195.53;48.97;;;;;;;-145.18;100.00;60484.78;5069416;28;20028;-66
2023/02/10 01:33:20;;;;;;;211.03;48.57;;;;;;;-145.18;100.00;60484.78;5070951;28;20020;-66
2023/02/10 01:35:46;;;;;;;190.80;45.73;;;;;;;-145.18;100.00;60484.78;5070851;28;20472;-66
2023/02/10 01:38:11;;;;;;;210.97;50.23;;;;;;;-145.18;100.00;60484.78;5072047;28;20032;-66
2023/02/10 01:40:37;;;;;;;232.87;52.87;;;;;;;-145.18;100.00;60484.78;5071405;28;20039;-66
2023/02/10 01:43:02;;;;;;;214.63;51.63;;;;;;;-145.18;100.00;60484.78;5071440;28;20468;-66
2023/02/10 01:45:37;;;;;;;215.77;50.53;;;;;;;-145.18;100.00;60484.78;5071405;28;20017;-66
2023/02/10 01:48:04;;;;;;;231.27;54.37;;;;;;;-145.18;100.00;60484.78;5067564;28;20027;-65
2023/02/10 01:50:36;;;;;;;225.50;52.40;;;;;;;-145.18;100.00;60484.78;5070797;28;20027;-65
2023/02/10 01:53:04;;;;;;;223.80;55.23;;;;;;;-145.18;100.00;60484.78;5068213;28;20495;-65
2023/02/10 01:55:34;;;;;;;251.33;55.27;;;;;;;-145.18;100.00;60484.78;5071626;28;20029;-65
2023/02/10 01:58:02;;;;;;;224.03;52.33;;;;;;;-145.18;100.00;60484.78;5071405;28;20025;-66
2023/02/10 02:00:28;;;;;;;210.07;50.13;;;;;;;-145.18;100.00;60484.78;5071630;28;20031;-65
2023/02/10 02:02:53;;;;;;;243.40;54.63;;;;;;;-145.18;100.00;60484.78;5070717;28;20475;-66
2023/02/10 02:05:34;;;;;;;207.07;52.47;;;;;;;-145.18;100.00;60484.78;5067773;28;20396;-65
2023/02/10 02:08:23;;;;;;;238.53;50.30;;;;;;;-145.18;100.00;60484.78;5071597;28;20032;-65
2023/02/10 02:10:51;;;;;;;224.90;52.20;;;;;;;-145.18;100.00;60484.78;5071310;28;20035;-66
2023/02/10 02:13:26;;;;;;;249.30;55.77;;;;;;;-145.18;100.00;60484.78;5071581;28;20033;-66
2023/02/10 02:16:14;;;;;;;252.60;53.63;;;;;;;-145.18;100.00;60484.78;5071600;28;20036;-66
2023/02/10 02:18:54;;;;;;;248.50;55.10;;;;;;;-145.18;100.00;60484.78;5066208;28;20047;-66
2023/02/10 02:21:37;;;;;;;252.07;55.23;;;;;;;-145.18;100.00;60484.78;5055338;28;20029;-66
2023/02/10 02:24:22;;;;;;;253.93;54.23;;;;;;;-145.18;100.00;60484.78;5066192;28;20103;-66
2023/02/10 02:27:22;;;;;;;245.37;54.17;;;;;;;-145.18;100.00;60484.78;5072270;28;20069;-66
2023/02/10 02:29:54;;;;;;;248.97;53.67;;;;;;;-145.18;100.00;60484.78;4989234;28;20383;-66
2023/02/10 02:32:26;;;;;;;268.00;53.63;;;;;;;-145.18;100.00;60484.78;5072011;28;20380;-66
2023/02/10 02:34:58;;;;;;;249.53;54.40;;;;;;;-145.18;100.00;60484.78;5074037;28;20484;-66
2023/02/10 02:37:29;;;;;;;238.20;54.87;;;;;;;-145.18;100.00;60484.78;5074567;28;20037;-66
2023/02/10 02:39:55;;;;;;;261.33;56.00;;;;;;;-145.18;100.00;60484.78;5074398;28;20491;-66
2023/02/10 02:42:32;;;;;;;243.17;53.60;;;;;;;-145.18;100.00;60484.78;5074608;28;20028;-66
2023/02/10 02:45:13;;;;;;;239.13;55.97;;;;;;;-145.18;100.00;60484.78;5074911;28;20487;-66
2023/02/10 02:48:03;;;;;;;231.98;53.88;;;;;;;-145.18;100.00;60484.78;5074672;28;20078;-66
2023/02/10 02:50:56;;;;;;;218.73;50.20;;;;;;;-145.18;100.00;60484.78;5072866;28;20032;-66
2023/02/10 02:53:32;;;;;;;204.00;50.10;;;;;;;-145.18;100.00;60484.78;5073091;28;20384;-66
2023/02/10 02:56:14;;;;;;;195.33;51.13;;;;;;;-145.18;100.00;60484.78;5073412;28;20116;-66
2023/02/10 02:58:55;;;;;;;191.90;47.92;;;;;;;-145.18;100.00;60484.78;5054715;28;20036;-66
2023/02/10 03:01:29;;;;;;;191.27;49.30;;;;;;;-145.18;100.00;60484.78;5072368;28;20033;-67
2023/02/10 03:03:57;;;;;;;201.27;50.43;;;;;;;-145.18;100.00;60484.78;5072547;28;20044;-67
2023/02/10 03:06:22;;;;;;;195.17;51.67;;;;;;;-145.18;100.00;60484.78;5073192;28;20455;-66
2023/02/10 03:08:48;;;;;;;210.10;50.23;;;;;;;-145.18;100.00;60484.78;5074034;28;20116;-66
2023/02/10 03:11:14;;;;;;;214.20;53.63;;;;;;;-145.18;100.00;60484.78;5072968;28;20032;-66
2023/02/10 03:13:40;;;;;;;203.70;50.80;;;;;;;-145.18;100.00;60484.78;5055980;28;20411;-66
2023/02/10 03:16:05;;;;;;;189.57;52.07;;;;;;;-145.18;100.00;60484.78;5072439;28;20033;-67
2023/02/10 03:18:31;;;;;;;199.30;50.60;;;;;;;-145.18;100.00;60484.78;5071365;28;20027;-67
2023/02/10 03:20:56;;;;;;;200.83;52.57;;;;;;;-145.18;100.00;60484.78;5072735;28;20024;-67
2023/02/10 03:23:22;;;;;;;204.50;53.63;;;;;;;-145.18;100.00;60484.78;5071681;28;20473;-66
2023/02/10 03:25:47;;;;;;;179.07;46.00;;;;;;;-145.18;100.00;60484.78;5073741;28;20028;-67
2023/02/10 03:28:13;;;;;;;178.70;47.43;;;;;;;-145.18;100.00;60484.78;5073801;28;20040;-66
2023/02/10 03:30:46;;;;;;;196.53;52.67;;;;;;;-145.18;100.00;60484.78;5073270;28;20392;-67
2023/02/10 03:33:12;;;;;;;189.33;50.73;;;;;;;-145.18;100.00;60484.78;5071698;28;20534;-67
2023/02/10 03:35:38;;;;;;;176.87;48.83;;;;;;;-145.18;100.00;60484.78;5073449;28;20028;-67
2023/02/10 03:38:03;;;;;;;201.53;49.47;;;;;;;-145.18;100.00;60484.78;5073413;28;20337;-67
2023/02/10 03:40:28;;;;;;;179.90;51.50;;;;;;;-145.18;100.00;60484.78;5073906;28;20036;-67
2023/02/10 03:42:54;;;;;;;192.17;50.87;;;;;;;-145.18;100.00;60484.78;5072691;28;20395;-67
2023/02/10 03:45:19;;;;;;;177.27;47.17;;;;;;;-145.18;100.00;60484.78;5073112;28;20060;-66
2023/02/10 03:47:44;;;;;;;187.73;51.47;;;;;;;-145.18;100.00;60484.78;5070741;28;20028;-66
2023/02/10 03:50:10;;;;;;;200.57;54.30;;;;;;;-145.18;100.00;60484.78;5070296;28;20115;-67
2023/02/10 03:52:35;;;;;;;198.50;53.33;;;;;;;-145.18;100.00;60484.78;5073403;28;20039;-67
2023/02/10 03:55:01;;;;;;;208.03;51.33;;;;;;;-145.18;100.00;60484.78;5073442;28;20024;-67
2023/02/10 03:57:26;;;;;;;193.17;51.10;;;;;;;-145.18;100.00;60484.78;5071297;28;20468;-67
2023/02/10 03:59:51;;;;;;;212.43;55.47;;;;;;;-145.18;100.00;60484.78;5070566;28;20036;-63
2023/02/10 04:02:17;;;;;;;185.97;52.07;;;;;;;-145.18;100.00;60484.78;5071491;28;20026;-66
2023/02/10 04:04:43;;;;;;;209.10;54.80;;;;;;;-145.18;100.00;60484.78;5070709;28;20029;-67
2023/02/10 04:07:08;;;;;;;205.00;55.83;;;;;;;-145.18;100.00;60484.78;5073235;28;20444;-67
2023/02/10 04:09:34;;;;;;;202.83;55.63;;;;;;;-145.18;100.00;60484.78;5070523;28;20111;-66
2023/02/10 04:11:59;;;;;;;209.13;53.23;;;;;;;-145.18;100.00;60484.78;5072871;28;20115;-67
2023/02/10 04:14:24;;;;;;;195.40;51.23;;;;;;;-145.18;100.00;60484.78;5072733;28;20468;-67
2023/02/10 04:16:50;;;;;;;200.53;55.20;;;;;;;-145.18;100.00;60484.78;5068781;28;20391;-66
2023/02/10 04:19:15;;;;;;;195.63;53.50;;;;;;;-145.18;100.00;60484.78;5070720;28;20029;-67
2023/02/10 04:21:40;;;;;;;188.13;53.73;;;;;;;-145.18;100.00;60484.78;5072832;28;20037;-67
2023/02/10 04:24:06;;;;;;;194.43;50.83;;;;;;;-145.18;100.00;60484.78;5064277;28;20483;-67
2023/02/10 04:26:31;;;;;;;191.50;50.33;;;;;;;-145.18;100.00;60484.78;5072885;28;20032;-67
2023/02/10 04:28:57;;;;;;;203.77;53.13;;;;;;;-145.18;100.00;60484.78;5069837;28;20579;-67
2023/02/10 04:31:22;;;;;;;195.80;51.60;;;;;;;-145.18;100.00;60484.78;5072557;28;20055;-67
2023/02/10 04:33:47;;;;;;;212.57;55.57;;;;;;;-145.18;100.00;60484.78;5071409;28;20111;-67
2023/02/10 04:36:13;;;;;;;199.77;53.87;;;;;;;-145.18;100.00;60484.78;5072709;28;20028;-66
2023/02/10 04:38:38;;;;;;;195.83;53.23;;;;;;;-145.18;100.00;60484.78;5072514;28;20536;-67
2023/02/10 04:41:04;;;;;;;233.10;56.63;;;;;;;-145.18;100.00;60484.78;5054582;28;20028;-67
2023/02/10 04:43:31;;;;;;;203.30;50.77;;;;;;;-145.18;100.00;60484.78;5072628;28;20028;-67
2023/02/10 04:45:56;;;;;;;198.40;50.87;;;;;;;-145.18;100.00;60484.78;5072407;28;20028;-66
2023/02/10 04:48:22;;;;;;;196.80;51.27;;;;;;;-145.18;100.00;60484.78;5069756;28;20028;-67
2023/02/10 04:50:47;;;;;;;210.07;53.87;;;;;;;-145.18;100.00;60484.78;5061333;28;20051;-67
2023/02/10 04:53:13;;;;;;;194.53;49.30;;;;;;;-145.18;100.00;60484.78;5071903;28;20028;-67
2023/02/10 04:55:38;;;;;;;204.43;51.73;;;;;;;-145.18;100.00;60484.78;5071769;28;20055;-67
2023/02/10 04:58:03;;;;;;;202.07;53.90;;;;;;;-145.18;100.00;60484.78;5072004;28;20020;-67
2023/02/10 05:00:29;;;;;;;209.77;53.57;;;;;;;-145.18;100.00;60484.78;5070962;28;20099;-67
2023/02/10 05:02:54;;;;;;;226.80;54.93;;;;;;;-145.18;100.00;60484.78;5070966;28;20460;-67
2023/02/10 05:05:20;;;;;;;206.73;52.67;;;;;;;-145.18;100.00;60484.78;5071917;28;20077;-67
2023/02/10 05:07:45;;;;;;;211.53;53.90;;;;;;;-145.18;100.00;60484.78;5072091;28;20032;-67
2023/02/10 05:10:11;;;;;;;207.87;54.57;;;;;;;-145.18;100.00;60484.78;5071783;28;20028;-67
2023/02/10 05:12:37;;;;;;;220.27;54.87;;;;;;;-145.18;100.00;60484.78;5071566;28;20111;-67
2023/02/10 05:15:03;;;;;;;205.80;52.87;;;;;;;-145.18;100.00;60484.78;5069975;28;20086;-67
2023/02/10 05:17:28;;;;;;;192.47;51.23;;;;;;;-145.18;100.00;60484.78;5064544;28;20051;-67
2023/02/10 05:19:54;;;;;;;212.20;54.83;;;;;;;-145.18;100.00;60484.78;5068299;28;20032;-67
2023/02/10 05:22:21;;;;;;;202.60;53.13;;;;;;;-145.18;100.00;60484.78;5064211;28;20029;-67
2023/02/10 05:24:47;;;;;;;202.13;55.33;;;;;;;-145.18;100.00;60484.78;5071733;28;20020;-67
2023/02/10 05:27:12;;;;;;;185.43;47.73;;;;;;;-145.18;100.00;60484.78;5071853;28;20024;-67
2023/02/10 05:29:38;;;;;;;202.07;53.93;;;;;;;-145.18;100.00;60484.78;5067907;28;20037;-67
2023/02/10 05:32:03;;;;;;;187.33;51.27;;;;;;;-145.18;100.00;60484.78;5060879;28;20037;-67
2023/02/10 05:34:28;;;;;;;208.67;54.53;;;;;;;-145.18;100.00;60484.78;5062794;28;20032;-67
2023/02/10 05:36:54;;;;;;;218.77;54.30;;;;;;;-145.18;100.00;60484.78;5069942;28;20021;-67
2023/02/10 05:39:25;;;;;;;207.17;55.30;;;;;;;-145.18;100.00;60484.78;5069668;28;20063;-67
2023/02/10 05:41:52;;;;;;;202.05;49.42;;;;;;;-145.18;100.00;60484.78;5066612;28;20046;-67
2023/02/10 05:44:18;;;;;;;192.43;48.00;;;;;;;-145.18;100.00;60484.78;5069003;28;20111;-67
2023/02/10 05:46:43;;;;;;;193.50;53.47;;;;;;;-145.18;100.00;60484.78;5054438;28;20096;-67
2023/02/10 05:49:09;;;;;;;212.20;55.50;;;;;;;-145.18;100.00;60484.78;5054451;28;20495;-67
2023/02/10 05:51:34;;;;;;;196.60;53.10;;;;;;;-145.18;100.00;60484.78;5070118;28;20036;-67
2023/02/10 05:54:00;;;;;;;184.47;48.63;;;;;;;-145.18;100.00;60484.78;5074117;28;20028;-67
2023/02/10 05:56:25;;;;;;;189.63;50.83;;;;;;;-145.18;100.00;60484.78;5068257;28;20096;-67
2023/02/10 05:58:50;;;;;;;219.00;54.20;;;;;;;-145.18;100.00;60484.78;5062791;28;20103;-67
2023/02/10 06:01:16;;;;;;;182.83;49.93;;;;;;;-145.18;100.00;60484.78;5077549;28;20048;-67
2023/02/10 06:03:41;;;;;;;216.43;56.13;;;;;;;-145.18;100.00;60484.78;5075637;28;20082;-67
2023/02/10 06:06:07;;;;;;;197.30;53.60;;;;;;;-145.18;100.00;60484.78;5077976;28;20365;-67
2023/02/10 06:08:32;;;;;;;205.70;54.27;;;;;;;-145.18;100.00;60484.78;5077967;28;20055;-66
2023/02/10 06:10:57;;;;;;;198.97;54.70;;;;;;;-145.18;100.00;60484.78;5078023;28;20131;-66
2023/02/10 06:13:23;;;;;;;235.23;54.33;;;;;;;-145.18;100.00;60484.78;5076243;28;20028;-66
2023/02/10 06:15:48;;;;;;;221.73;54.97;;;;;;;-145.18;100.00;60484.78;5077840;28;20471;-66
2023/02/10 06:18:14;;;;;;;232.53;57.47;;;;;;;-145.18;100.00;60484.78;5076884;28;20020;-67
2023/02/10 06:20:39;;;;;;;222.53;57.73;;;;;;;-145.18;100.00;60484.78;5076936;28;20031;-67
2023/02/10 06:23:05;;;;;;;196.83;52.70;;;;;;;-145.18;100.00;60484.78;5077632;28;20061;-67
2023/02/10 06:25:31;;;;;;;197.60;54.07;;;;;;;-145.18;100.00;60484.78;5075885;28;20020;-67
2023/02/10 06:27:56;;;;;;;222.70;55.27;;;;;;;-145.18;100.00;60484.78;5056938;28;20063;-67
2023/02/10 06:30:21;;;;;;;220.73;55.23;;;;;;;-145.18;100.00;60484.78;5074505;28;20043;-67
2023/02/10 06:32:47;;;;;;;226.60;58.20;;;;;;;-145.18;100.00;60484.78;5076161;28;20033;-67
2023/02/10 06:35:13;;;;;;;224.13;57.17;;;;;;;-145.18;100.00;60484.78;5076856;28;20157;-67
2023/02/10 06:37:38;;;;;;;222.70;55.43;;;;;;;-145.18;100.00;60484.78;5077429;28;20028;-66
2023/02/10 06:40:05;;;;;;;209.80;53.27;;;;;;;-145.18;100.00;60484.78;5076249;28;20099;-67
2023/02/10 06:42:31;;;;;;;214.63;56.30;;;;;;;-145.18;100.00;60484.78;5075925;28;20151;-67
2023/02/10 06:44:56;;;;;;;200.10;55.60;;;;;;;-145.18;100.00;60484.78;5076183;28;20020;-67
2023/02/10 06:47:22;;;;;;;229.70;57.07;;;;;;;-145.18;100.00;60484.78;5077673;28;20516;-67
2023/02/10 06:49:47;;;;;;;225.17;56.37;;;;;;;-145.18;100.00;60484.78;5075567;28;20022;-67
2023/02/10 06:52:13;;;;;;;219.20;56.40;;;;;;;-145.18;100.00;60484.78;5077570;28;20028;-67
2023/02/10 06:54:38;;;;;;;214.80;57.20;;;;;;;-145.18;100.00;60484.78;5077580;28;20115;-67
2023/02/10 06:57:04;;;;;;;228.60;58.30;;;;;;;-145.18;100.00;60484.78;5075275;28;20376;-67
2023/02/10 06:59:29;;;;;;;217.17;57.13;;;;;;;-145.18;100.00;60484.78;5076177;28;20488;-67
2023/02/10 07:02:00;;;;;;;209.37;52.60;;;;;;;-145.18;100.00;60484.78;5077433;28;20024;-67
2023/02/10 07:04:30;;;;;;;224.30;56.20;;;;;;;-145.18;100.00;60484.78;5072682;28;20519;-67
2023/02/10 07:06:56;;;;;;;221.47;56.00;;;;;;;-145.18;100.00;60484.78;5053290;28;20037;-67
2023/02/10 07:09:22;;;;;;;214.87;57.37;;;;;;;-145.18;100.00;60484.78;5056297;28;20493;-67
2023/02/10 07:11:47;;;;;;;229.03;57.00;;;;;;;-145.18;100.00;60484.78;5074336;28;20106;-67
2023/02/10 07:14:13;;;;;;;192.93;53.07;;;;;;;-145.18;100.00;60484.78;5073992;28;20471;-67
2023/02/10 07:16:38;;;;;;;202.70;53.60;;;;;;;-145.18;100.00;60484.78;5074329;28;20028;-67
2023/02/10 07:19:04;;;;;;;193.30;51.80;;;;;;;-145.18;100.00;60484.78;5070966;28;20111;-68
2023/02/10 07:21:29;;;;;;;191.20;51.53;;;;;;;-145.18;100.00;60484.78;5070246;28;20024;-67
2023/02/10 07:23:55;;;;;;;157.13;45.87;;;;;;;-145.18;100.00;60484.78;5069558;28;20032;-68
2023/02/10 07:26:20;;;;;;;166.77;47.67;;;;;;;-145.18;100.00;60484.78;5074235;28;20043;-68
2023/02/10 07:28:46;;;;;;;165.27;47.77;;;;;;;-145.18;100.00;60484.78;5071074;28;20024;-67
2023/02/10 07:31:12;;;;;;;161.30;47.70;;;;;;;-145.18;100.00;60484.78;5070221;28;20111;-67
2023/02/10 07:33:38;;;;;;;159.60;48.47;;;;;;;-145.18;100.00;60484.78;5071718;28;20020;-68
2023/02/10 07:36:04;;;;;;;148.70;44.10;;;;;;;-145.18;100.00;60484.78;5073645;28;20020;-68
2023/02/10 07:38:31;;;;;;;158.30;46.63;;;;;;;-145.18;100.00;60484.78;5073645;28;20031;-67
2023/02/10 07:40:57;;;;;;;148.77;45.30;;;;;;;-145.18;100.00;60484.78;5066908;28;20455;-67
2023/02/10 07:43:22;;;;;;;117.87;36.17;;;;;;;-145.18;100.00;60484.78;5064028;28;20495;-68
2023/02/10 07:45:50;;;;;;;141.80;43.63;;;;;;;-145.18;100.00;60484.78;5073492;28;20020;-68
2023/02/10 07:48:16;;;;;;;136.40;44.97;;;;;;;-145.18;100.00;60484.78;5072952;28;20037;-67
2023/02/10 07:50:42;;;;;;;132.93;42.50;;;;;;;-145.18;100.00;60484.78;5072470;28;20537;-68
2023/02/10 07:53:07;;;;;;;113.73;39.27;;;;;;;-145.18;100.00;60484.78;5071685;28;20020;-68
2023/02/10 07:55:33;;;;;;;111.07;38.27;;;;;;;-145.18;100.00;60484.78;5069447;28;20495;-68
2023/02/10 07:57:58;;;;;;;92.20;33.43;;;;;;;-145.18;100.00;60484.78;5053698;28;20133;-67
2023/02/10 08:00:23;;;;;;;95.87;32.27;;;;;;;-145.18;100.00;60484.78;5069802;28;20058;-67
2023/02/10 08:02:49;;;;;;;98.97;34.67;;;;;;;-145.18;100.00;60484.78;5071129;28;20025;-67
2023/02/10 08:05:14;;;;;;;90.80;32.63;;;;;;;-145.18;100.00;60484.78;5072865;28;20028;-67
2023/02/10 08:07:40;;;;;;;88.03;34.60;;;;;;;-145.18;100.00;60484.78;5073417;28;20107;-67
2023/02/10 08:10:05;;;;;;;68.27;27.00;;;;;;;-145.18;100.00;60484.78;5073221;28;20020;-66
2023/02/10 08:12:32;;;;;;;80.10;32.73;;;;;;;-145.18;100.00;60484.78;5073156;28;20016;-67
2023/02/10 08:14:58;;;;;;;64.37;25.17;;;;;;;-145.18;100.00;60484.78;5072566;28;20025;-67
2023/02/10 08:17:23;;;;;;;70.77;28.90;;;;;;;-145.18;100.00;60484.78;5069872;28;20028;-67
2023/02/10 08:19:49;;;;;;;61.93;27.20;;;;;;;-145.18;100.00;60484.78;5072399;28;20418;-66
2023/02/10 08:22:14;;;;;;;54.20;25.37;;;;;;;-145.18;100.00;60484.78;5070134;28;20030;-67
2023/02/10 08:24:39;;;;;;;55.57;25.60;;;;;;;-145.18;100.00;60484.78;5071869;28;20469;-67
2023/02/10 08:27:05;;;;;;;45.23;21.77;;;;;;;-145.18;100.00;60484.78;5071279;28;20055;-67
2023/02/10 08:29:31;;;;;;;55.07;25.33;;;;;;;-145.18;100.00;60484.78;5070651;28;20036;-67
2023/02/10 08:31:56;;;;;;;49.23;22.60;;;;;;;-145.18;100.00;60484.78;5071606;28;20108;-66
2023/02/10 08:34:22;;;;;;;49.77;22.67;;;;;;;-145.18;100.00;60484.78;5067580;28;20028;-66
2023/02/10 08:36:47;;;;;;;43.77;22.27;;;;;;;-145.18;100.00;60484.78;5053038;28;20027;-66
2023/02/10 08:39:14;;;;;;;42.57;20.93;;;;;;;-145.18;100.00;60484.78;5063840;28;20028;-66
2023/02/10 08:41:40;;;;;;;45.43;22.30;;;;;;;-145.18;100.00;60484.78;5070147;28;20032;-66
2023/02/10 08:44:06;;;;;;;43.57;22.23;;;;;;;-145.18;100.00;60484.78;5071627;28;20021;-65
2023/02/10 08:46:32;;;;;;;44.90;22.53;;;;;;;-145.18;100.00;60484.78;5071569;28;20032;-66
2023/02/10 08:49:00;;;;;;;35.30;17.07;;;;;;;-145.18;100.00;60484.78;5071044;28;20043;-66
2023/02/10 08:51:25;;;;;;;41.03;20.03;;;;;;;-145.18;100.00;60484.78;5072205;28;20476;-66
2023/02/10 08:53:50;;;;;;;46.50;22.50;;;;;;;-145.18;100.00;60484.78;5072559;28;20028;-66
2023/02/10 08:56:18;;;;;;;37.13;19.33;;;;;;;-145.18;100.00;60484.78;5071621;28;20468;-66
2023/02/10 08:58:45;;;;;;;38.77;20.27;;;;;;;-145.18;100.00;60484.78;5072083;28;20017;-66
2023/02/10 09:01:13;;;;;;;37.57;17.60;;;;;;;-145.18;100.00;60484.78;5070595;28;20050;-66
2023/02/10 09:03:39;;;;;;;29.50;15.40;;;;;;;-145.18;100.00;60484.78;5071445;28;20028;-66
2023/02/10 09:06:04;;;;;;;39.37;19.83;;;;;;;-145.18;100.00;60484.78;5058067;28;20688;-66
2023/02/10 09:08:30;;;;;;;40.07;18.97;;;;;;;-145.18;100.00;60484.78;5052275;28;20107;-66
2023/02/10 09:10:57;;;;;;;40.83;17.97;;;;;;;-145.18;100.00;60484.78;5052001;28;20427;-66
2023/02/10 09:13:23;;;;;;;41.93;21.33;;;;;;;-145.18;100.00;60484.78;5052247;28;20021;-66
2023/02/10 09:15:48;;;;;;;38.63;17.30;;;;;;;-145.18;100.00;60484.78;5070538;28;20377;-67
2023/02/10 09:18:13;;;;;;;34.13;16.63;;;;;;;-145.18;100.00;60484.78;5071232;28;20020;-67
2023/02/10 09:20:39;;;;;;;49.17;22.10;;;;;;;-145.18;100.00;60484.78;5070469;28;20020;-67
2023/02/10 09:23:05;;;;;;;43.80;20.37;;;;;;;-145.18;100.00;60484.78;5072019;28;20546;-67
2023/02/10 09:25:31;;;;;;;45.60;22.70;;;;;;;-145.18;100.00;60484.78;5070049;28;20021;-67
2023/02/10 09:27:57;;;;;;;45.87;21.73;;;;;;;-145.18;100.00;60484.78;5068625;28;20020;-67
2023/02/10 09:30:26;;;;;;;43.33;21.67;;;;;;;-145.18;100.00;60484.78;5070117;28;20020;-67
2023/02/10 09:32:52;;;;;;;50.43;24.07;;;;;;;-145.18;100.00;60484.78;5068777;28;20066;-67
2023/02/10 09:35:17;;;;;;;43.40;18.07;;;;;;;-145.18;100.00;60484.78;5071353;28;20052;-65
2023/02/10 09:37:43;;;;;;;50.70;19.97;;;;;;;-145.18;100.00;60484.78;5070772;28;20194;-66
2023/02/10 09:40:31;;;;;;;49.90;21.67;;;;;;;-145.18;100.00;60484.78;5070423;28;20032;-66
2023/02/10 09:43:18;;;;;;;48.63;23.63;;;;;;;-145.18;100.00;60484.78;5051582;28;20025;-66
2023/02/10 09:45:47;;;;;;;43.27;19.40;;;;;;;-145.18;100.00;60484.78;5056495;28;20162;-66
2023/02/10 09:48:35;;;;;;;50.60;22.97;;;;;;;-145.18;100.00;60484.78;5071675;28;20016;-66
2023/02/10 09:51:23;;;;;;;48.93;21.23;;;;;;;-145.18;100.00;60484.78;5068582;28;20029;-66
2023/02/10 09:53:49;;;;;;;48.30;23.67;;;;;;;-145.18;100.00;60484.78;5071047;28;20025;-66
2023/02/10 09:56:19;;;;;;;53.30;23.47;;;;;;;-145.18;100.00;60484.78;5071406;28;20392;-66
2023/02/10 09:58:56;;;;;;;54.87;25.23;;;;;;;-145.18;100.00;60484.78;5068022;28;20024;-66
2023/02/10 10:01:26;;;;;;;54.73;23.10;;;;;;;-145.18;100.00;60484.78;5069821;28;20063;-66
2023/02/10 10:03:58;;;;;;;62.53;26.90;;;;;;;-145.18;100.00;60484.78;5071338;28;20125;-65
2023/02/10 10:06:32;;;;;;;55.23;25.03;;;;;;;-145.18;100.00;60484.78;5070723;28;20392;-65
2023/02/10 10:09:05;;;;;;;40.00;14.23;;;;;;;-145.18;100.00;60484.78;5070839;28;20031;-66
2023/02/10 10:11:51;;;;;;;61.87;24.87;;;;;;;-145.18;100.00;60484.78;5070834;28;20202;-66
2023/02/10 10:14:38;;;;;;;54.27;23.07;;;;;;;-145.18;100.00;60484.78;5071321;28;20024;-65
2023/02/10 10:17:40;;;;;;;66.73;25.63;;;;;;;-145.18;100.00;60484.78;5070448;28;20036;-65
2023/02/10 10:20:27;;;;;;;69.33;28.80;;;;;;;-145.18;100.00;60484.78;5053256;28;20063;-66
2023/02/10 10:23:01;;;;;;;69.33;26.87;;;;;;;-145.18;100.00;60484.78;5070218;28;20035;-65
2023/02/10 10:25:54;;;;;;;73.07;29.07;;;;;;;-145.18;100.00;60484.78;5071417;28;20021;-66
2023/02/10 10:28:42;;;;;;;65.17;26.63;;;;;;;-145.18;100.00;60484.78;5071164;28;20372;-66
2023/02/10 10:31:10;;;;;;;43.53;18.77;;;;;;;-145.18;100.00;60484.78;5065459;28;20024;-65
2023/02/10 10:33:54;;;;;;;63.53;26.20;;;;;;;-145.18;100.00;60484.78;5071287;28;20492;-65
2023/02/10 10:36:31;;;;;;;69.73;26.73;;;;;;;-145.18;100.00;60484.78;5071376;28;20430;-66
2023/02/10 10:39:18;;;;;;;70.77;28.23;;;;;;;-145.18;100.00;60484.78;5069735;28;20067;-66
2023/02/10 10:41:44;;;;;;;61.73;27.03;;;;;;;-145.18;100.00;60484.78;5075075;28;20032;-66
2023/02/10 10:44:15;;;;;;;66.03;27.73;;;;;;;-145.18;100.00;60484.78;5074879;28;20530;-66
2023/02/10 10:46:49;;;;;;;68.57;25.43;;;;;;;-145.18;100.00;60484.78;5066370;28;20090;-66
2023/02/10 10:49:15;;;;;;;59.63;24.33;;;;;;;-145.18;100.00;60484.78;5068698;28;20175;-66
2023/02/10 10:51:41;;;;;;;49.47;21.77;;;;;;;-145.18;100.00;60484.78;5066571;28;20396;-66
2023/02/10 10:54:14;;;;;;;64.00;27.93;;;;;;;-145.18;100.00;60484.78;5063620;28;20031;-66